Latest Weather Observations for Gunnedah Airport

IDN60801

Issued at 11:35 pm EST Tuesday 30 September 2014 (issued every 30 minutes, with the page automatically refreshed every 10 minutes)

About weather observations | Map of weather stations | Latest weather observations for NSW | Other Formats
Station Details ID: 055202 Name: GUNNEDAH AIRPORT AWS Lat: -30.95 Lon: 150.25 Height: 262.57 m
Data from the previous 72 hours. | See also: Recent months at Gunnedah Airport
Date/Time
EST
Temp
°C
App
Temp
°C
Dew
Point
Rel
Hum
%
Delta-T
°C
Wind Press
QNH
hPa
Press
MSL
hPa
Rain
since 9 am
mm
Dir
 
Spd
km/h
Gust
km/h
Spd
kts
Gust
kts
30/11:30pm 17.3 15.4 7.6 53 5.0 W 7 11 4 6 1013.8 1013.5 0.0
30/11:00pm 16.3 13.9 8.8 61 3.9 W 11 15 6 8 1013.7 1013.4 0.0
30/10:30pm 14.5 14.4 9.3 71 2.7 CALM 0 0 0 0 1013.4 1013.1 0.0
30/10:00pm 14.8 14.6 9.0 68 3.0 CALM 0 0 0 0 1013.5 1013.2 0.0
30/09:30pm 16.0 15.8 9.0 63 3.6 CALM 0 2 0 1 1013.6 1013.3 0.0
30/09:00pm 16.7 15.4 9.1 61 4.0 SSE 6 7 3 4 1013.8 1013.5 0.0
30/08:30pm 19.2 18.7 9.4 53 5.2 N 2 6 1 3 1013.8 1013.5 0.0
30/08:00pm 18.2 16.7 9.0 55 4.9 W 7 9 4 5 1013.8 1013.5 0.0
30/07:30pm 20.5 18.5 8.5 46 6.4 N 9 13 5 7 1013.6 1013.3 0.0
30/07:00pm 19.8 16.7 8.8 49 5.8 N 15 17 8 9 1013.3 1013.0 0.0
30/06:30pm 21.1 18.0 9.0 46 6.5 NNE 15 17 8 9 1013.3 1013.0 0.0
30/06:00pm 22.7 19.7 7.7 38 7.9 NNE 13 17 7 9 1013.5 1013.2 0.0
30/05:30pm 25.3 21.2 6.0 29 10.1 NNE 17 20 9 11 1013.6 1013.3 0.0
30/05:07pm 28.7 21.2 3.5 20 12.8 NNW 32 41 17 22 1014.0 1013.7 0.0
30/05:00pm 29.3 27.2 8.4 27 11.6 WNW 9 13 5 7 1014.0 1013.7 0.0
30/04:30pm 30.5 27.6 6.4 22 13.0 NNW 11 15 6 8 1013.7 1013.4 0.0
30/04:00pm 29.7 27.1 7.6 25 12.1 NNW 11 15 6 8 1013.8 1013.5 0.0
30/03:30pm 30.0 25.6 6.6 23 12.7 NNW 19 26 10 14 1013.9 1013.6 0.0
30/03:00pm 30.7 27.3 7.8 24 12.7 WNW 15 19 8 10 1014.1 1013.8 0.0
30/02:30pm 29.6 26.3 8.1 26 11.9 NW 15 24 8 13 1014.6 1014.3 0.0
30/02:00pm 29.4 25.1 7.9 26 11.8 NW 20 30 11 16 1015.0 1014.7 0.0
30/01:30pm 29.0 23.5 5.8 23 12.3 NW 24 35 13 19 1015.1 1014.8 0.0
30/01:00pm 29.4 24.5 6.7 24 12.2 NW 22 35 12 19 1015.5 1015.2 0.0
30/12:30pm 29.4 23.6 6.1 23 12.5 NW 26 43 14 23 1015.9 1015.6 0.0
30/12:00pm 29.5 23.8 6.8 24 12.3 NNW 26 35 14 19 1016.4 1016.1 0.0
30/11:30am 28.5 23.3 7.1 26 11.6 NW 24 32 13 17 1017.0 1016.7 0.0
30/11:00am 27.6 24.8 9.9 33 10.0 WNW 15 22 8 12 1017.5 1017.3 0.0
30/10:30am 26.2 22.2 8.2 32 9.8 NW 19 26 10 14 1017.8 1017.6 0.0
30/10:00am 27.5 23.4 7.9 29 10.7 NNW 19 26 10 14 1018.0 1017.8 0.0
30/09:30am 25.0 23.4 8.1 34 9.1 N 6 13 3 7 1018.5 1018.2 0.0
30/09:00am 23.0 22.0 9.0 41 7.6 NNE 4 7 2 4 1018.7 1018.4 0.0
30/08:30am 21.3 20.1 9.5 47 6.4 SE 6 9 3 5 1018.7 1018.4 0.0
30/08:00am 19.5 18.1 10.8 57 4.8 SE 9 11 5 6 1018.6 1018.3 0.0
30/07:30am 18.0 16.7 9.9 59 4.3 SSE 7 11 4 6 1018.5 1018.2 0.0
30/07:00am 15.5 14.2 10.1 70 2.9 SSE 7 9 4 5 1018.5 1018.2 0.0
30/06:30am 11.9 10.1 9.5 85 1.2 S 9 13 5 7 1018.0 1017.8 0.0
30/06:00am 10.7 8.1 7.8 82 1.4 S 11 13 6 7 1017.8 1017.6 0.0
30/05:30am 10.2 7.7 6.7 79 1.7 SSE 9 11 5 6 1017.5 1017.3 0.0
30/05:00am 10.1 8.1 7.0 81 1.5 SE 7 9 4 5 1017.1 1016.8 0.0
30/04:30am 11.3 9.6 8.2 81 1.5 SSE 7 9 4 5 1017.0 1016.7 0.0
30/04:00am 9.7 7.4 7.3 85 1.2 S 9 11 5 6 1016.9 1016.6 0.0
30/03:30am 10.0 9.4 7.3 83 1.3 CALM 0 0 0 0 1016.8 1016.5 0.0
30/03:00am 10.6 9.9 8.5 87 1.0 E 2 6 1 3 1016.9 1016.6 0.0
30/02:30am 11.3 9.9 8.9 85 1.2 ESE 6 7 3 4 1017.2 1016.9 0.0
30/02:00am 10.6 10.2 8.2 85 1.2 CALM 0 0 0 0 1017.3 1017.0 0.0
30/01:30am 11.7 11.5 8.9 83 1.4 CALM 0 0 0 0 1017.4 1017.1 0.0
30/01:00am 11.8 11.5 8.6 81 1.6 CALM 0 0 0 0 1017.5 1017.3 0.0
30/12:30am 12.2 12.0 9.0 81 1.6 CALM 0 0 0 0 1017.7 1017.5 0.0
30/12:00am 12.6 12.5 9.6 82 1.5 SSW 0 0 0 0 1017.9 1017.7 0.0
 
Date/Time
EST
Temp
°C
App
Temp
°C
Dew
Point
Rel
Hum
%
Delta-T
°C
Wind Press
QNH
hPa
Press
MSL
hPa
Rain
since 9 am
mm
Dir
 
Spd
km/h
Gust
km/h
Spd
kts
Gust
kts
29/11:30pm 12.5 12.4 9.3 81 1.6 CALM 0 0 0 0 1017.9 1017.7 0.0
29/11:00pm 12.4 12.2 9.1 80 1.7 CALM 0 0 0 0 1018.1 1017.9 0.0
29/10:30pm 12.7 11.3 8.8 77 2.0 WNW 6 7 3 4 1018.1 1017.9 0.0
29/10:00pm 13.6 12.2 8.9 73 2.4 S 6 9 3 5 1018.3 1018.0 0.0
29/09:30pm 13.8 13.5 8.8 72 2.6 CALM 0 0 0 0 1018.3 1018.0 0.0
29/09:00pm 15.1 13.7 9.0 67 3.2 S 6 7 3 4 1018.1 1017.9 0.0
29/08:30pm 15.9 14.2 8.2 60 3.9 S 7 11 4 6 1017.9 1017.7 0.0
29/08:00pm 18.1 17.9 9.2 56 4.7 CALM 0 0 0 0 1017.6 1017.4 0.0
29/07:30pm 18.7 18.5 9.2 54 5.0 CALM 0 0 0 0 1017.3 1017.0 0.0
29/07:00pm 19.0 18.8 9.2 53 5.2 CALM 0 0 0 0 1017.0 1016.7 0.0
29/06:30pm 21.5 20.8 7.0 39 7.5 CALM 0 0 0 0 1016.8 1016.5 0.0
29/06:00pm 23.6 22.2 7.3 35 8.6 WNW 4 6 2 3 1016.5 1016.2 0.0
29/05:30pm 25.8 23.9 7.4 31 9.9 WNW 7 9 4 5 1016.3 1016.0 0.0
29/05:00pm 26.7 23.7 6.2 27 10.8 WNW 11 15 6 8 1015.9 1015.6 0.0
29/04:30pm 27.0 24.5 6.4 27 10.9 NNW 9 15 5 8 1015.8 1015.5 0.0
29/04:00pm 27.7 24.5 7.0 27 11.1 W 13 17 7 9 1015.6 1015.3 0.0
29/03:30pm 28.2 26.2 6.9 26 11.5 W 7 17 4 9 1015.6 1015.3 0.0
29/03:00pm 27.7 25.1 5.9 25 11.5 N 9 17 5 9 1015.7 1015.4 0.0
29/02:30pm 27.9 25.0 6.6 26 11.4 WSW 11 15 6 8 1016.0 1015.7 0.0
29/02:00pm 27.2 24.3 4.9 24 11.5 WNW 9 20 5 11 1016.3 1016.0 0.0
29/01:30pm 27.1 22.8 5.4 25 11.3 W 17 26 9 14 1016.5 1016.2 0.0
29/01:00pm 27.1 23.7 7.5 29 10.6 WNW 15 20 8 11 1016.8 1016.5 0.0
29/12:30pm 26.6 23.3 6.6 28 10.6 NW 13 20 7 11 1017.3 1017.0 0.0
29/12:00pm 26.2 22.4 7.7 31 10.0 NW 17 26 9 14 1017.6 1017.4 0.0
29/11:30am 25.3 21.6 7.9 33 9.4 NNW 17 28 9 15 1018.0 1017.8 0.0
29/11:00am 24.5 20.6 7.2 33 9.1 NW 17 24 9 13 1018.5 1018.2 0.0
29/10:30am 23.9 19.9 9.1 39 8.1 WNW 20 26 11 14 1018.8 1018.5 0.0
29/10:00am 22.7 19.8 8.0 39 7.8 NNW 13 20 7 11 1018.9 1018.6 0.0
29/09:30am 21.5 18.8 7.3 40 7.4 NNW 11 19 6 10 1019.2 1018.9 0.0
29/09:00am 19.4 18.3 8.4 49 5.8 W 4 9 2 5 1019.4 1019.1 0.0
29/08:30am 18.0 17.8 9.1 56 4.7 CALM 0 7 0 4 1019.7 1019.4 0.0
29/08:00am 15.5 15.2 8.5 63 3.6 CALM 0 0 0 0 1019.6 1019.3 0.0
29/07:30am 13.4 12.7 8.7 73 2.4 SSE 2 9 1 5 1019.5 1019.2 0.0
29/07:00am 10.0 9.4 7.6 85 1.2 CALM 0 0 0 0 1019.5 1019.2 0.0
29/06:30am 7.3 6.3 5.8 90 0.7 CALM 0 0 0 0 1019.3 1019.0 0.0
29/06:00am 5.5 4.1 3.8 89 0.7 CALM 0 0 0 0 1019.2 1018.9 0.0
29/05:30am 6.5 5.4 5.3 92 0.5 CALM 0 0 0 0 1018.8 1018.5 0.0
29/05:00am 5.8 4.5 4.3 90 0.6 CALM 0 0 0 0 1018.4 1018.1 0.0
29/04:30am 5.2 3.7 3.2 87 0.8 CALM 0 0 0 0 1017.8 1017.6 0.0
29/04:00am 5.6 4.2 3.3 85 1.0 CALM 0 0 0 0 1017.8 1017.6 0.0
29/03:30am 6.4 4.8 4.6 88 0.8 ENE 2 6 1 3 1017.9 1017.7 0.0
29/03:00am 7.2 5.0 5.2 87 0.9 ENE 6 9 3 5 1018.1 1017.9 0.0
29/02:30am 8.8 6.9 6.9 88 0.9 S 6 7 3 4 1018.0 1017.8 0.0
29/02:00am 8.4 6.1 5.7 83 1.2 S 7 9 4 5 1018.4 1018.1 0.0
29/01:30am 8.2 6.0 6.2 87 0.9 SSW 7 9 4 5 1018.6 1018.3 0.0
29/01:00am 8.1 6.0 5.7 85 1.1 S 6 9 3 5 1018.7 1018.4 0.0
29/12:30am 8.6 6.0 6.2 85 1.1 E 9 9 5 5 1019.0 1018.7 0.0
29/12:00am 9.4 8.6 6.5 82 1.4 CALM 0 0 0 0 1019.0 1018.7 0.0
 
Date/Time
EST
Temp
°C
App
Temp
°C
Dew
Point
Rel
Hum
%
Delta-T
°C
Wind Press
QNH
hPa
Press
MSL
hPa
Rain
since 9 am
mm
Dir
 
Spd
km/h
Gust
km/h
Spd
kts
Gust
kts
28/11:30pm 9.6 8.8 6.7 82 1.4 CALM 0 0 0 0 1019.1 1018.8 0.0
28/11:00pm 9.6 8.8 6.3 80 1.5 CALM 0 0 0 0 1018.8 1018.5 0.0
28/10:30pm 10.3 8.3 7.2 81 1.5 SW 7 11 4 6 1018.8 1018.5 0.0
28/10:00pm 10.8 10.2 7.5 80 1.6 CALM 0 0 0 0 1018.5 1018.2 0.0
28/09:30pm 11.8 11.4 8.1 78 1.8 CALM 0 0 0 0 1018.5 1018.2 0.0
28/09:00pm 12.6 12.2 8.3 75 2.2 CALM 0 0 0 0 1018.7 1018.4 0.0
28/08:30pm 13.0 12.4 7.5 69 2.7 CALM 0 0 0 0 1018.5 1018.2 0.0
28/08:00pm 13.7 11.9 7.2 65 3.2 S 6 7 3 4 1018.4 1018.1 0.0
28/07:30pm 14.4 12.6 7.9 65 3.3 ENE 7 7 4 4 1017.9 1017.7 0.0
28/07:00pm 16.7 15.8 6.2 50 5.2 CALM 0 0 0 0 1017.7 1017.5 0.0
28/06:30pm 18.7 17.6 5.2 41 6.6 CALM 0 0 0 0 1017.5 1017.3 0.0
28/06:00pm 20.9 19.7 4.5 34 8.1 CALM 0 6 0 3 1017.4 1017.1 0.0
28/05:30pm 22.8 20.4 5.3 32 8.9 W 7 11 4 6 1017.5 1017.3 0.0
28/05:00pm 23.9 20.6 4.8 29 9.6 WNW 11 15 6 8 1017.4 1017.1 0.0
28/04:30pm 24.3 21.0 4.6 28 9.9 W 11 17 6 9 1017.5 1017.3 0.0
28/04:00pm 24.6 20.8 3.8 26 10.4 NW 13 20 7 11 1017.5 1017.3 0.0
28/03:30pm 24.6 21.1 3.3 25 10.5 W 11 15 6 8 1017.6 1017.4 0.0
28/03:00pm 24.4 21.3 3.7 26 10.3 WSW 9 17 5 9 1017.8 1017.6 0.0
28/02:30pm 24.6 21.4 4.9 28 10.0 WSW 11 20 6 11 1018.4 1018.1 0.0
28/02:00pm 24.3 20.4 3.6 26 10.2 WSW 13 19 7 10 1018.9 1018.6 0.0
28/01:30pm 24.0 20.4 4.9 29 9.7 SSW 13 20 7 11 1019.2 1018.9 0.0
28/01:00pm 23.5 21.0 4.5 29 9.5 SE 7 17 4 9 1019.6 1019.3 0.0
28/12:30pm 23.0 20.2 5.0 31 9.1 SE 9 15 5 8 1020.0 1019.7 0.0
28/12:00pm 23.0 20.6 5.4 32 8.9 SSE 7 17 4 9 1020.4 1020.1 0.0
28/11:30am 22.3 19.4 4.8 32 8.8 ENE 9 15 5 8 1020.8 1020.6 0.0
28/11:00am 22.2 19.9 5.6 34 8.4 SE 7 15 4 8 1021.3 1021.1 0.0
28/10:30am 20.8 17.8 6.0 38 7.5 ESE 11 17 6 9 1021.7 1021.5 0.0
28/10:00am 20.3 18.6 7.7 44 6.5 ESE 6 13 3 7 1022.1 1021.9 0.0
28/09:30am 19.3 17.3 8.6 50 5.6 E 9 13 5 7 1022.5 1022.2 0.0
28/09:00am 18.2 16.0 10.8 62 4.0 ESE 13 17 7 9 1022.7 1022.4 -
28/08:30am 15.8 13.6 9.5 66 3.3 SE 11 15 6 8 1022.8 1022.5 -
28/08:00am 14.6 12.0 9.2 70 2.8 ESE 13 17 7 9 1022.7 1022.4 -
28/07:30am 12.8 10.0 8.5 75 2.2 SE 13 15 7 8 1022.6 1022.3 -
28/07:00am 11.2 9.3 7.5 78 1.8 SE 7 11 4 6 1022.3 1022.0 0.0
28/06:30am 9.3 6.4 6.6 83 1.3 SE 11 13 6 7 1022.0 1021.8 0.0
28/06:00am 6.3 3.0 4.5 88 0.8 SSE 11 13 6 7 1021.6 1021.4 0.0
28/05:30am 8.0 4.5 5.5 84 1.1 SE 13 15 7 8 1021.2 1021.0 0.0
28/05:00am 7.2 3.6 5.0 86 1.0 SE 13 15 7 8 1021.2 1021.0 0.0
28/04:30am 8.2 5.0 5.0 80 1.4 SE 11 13 6 7 1021.0 1020.8 0.0
28/04:00am 8.3 4.0 5.2 81 1.4 SE 17 17 9 9 1020.7 1020.4 0.0
28/03:30am 6.9 3.2 4.4 84 1.1 SSE 13 15 7 8 1020.7 1020.4 0.0
28/03:00am 7.6 4.3 4.6 81 1.3 SE 11 13 6 7 1020.6 1020.3 0.0
28/02:30am 8.5 7.5 5.4 81 1.4 CALM 0 0 0 0 1020.7 1020.4 0.0
28/02:00am 7.3 6.1 4.4 82 1.3 CALM 0 0 0 0 1020.8 1020.6 0.0
28/01:30am 6.7 5.5 4.7 87 0.9 CALM 0 0 0 0 1020.9 1020.7 0.0
28/01:00am 6.9 5.7 4.7 86 1.0 CALM 0 0 0 0 1021.1 1020.9 0.0
28/12:30am 7.4 6.3 5.0 85 1.1 CALM 0 0 0 0 1021.1 1020.9 0.0
28/12:00am 7.4 6.2 4.4 81 1.3 CALM 0 0 0 0 1021.2 1021.0 0.0

Other Formats:

Comma delimited format used in spreadsheet applications
http://www.bom.gov.au/fwo/IDN60801/IDN60801.95740.axf

JavaScript Object Notation format (JSON) in row-major order
http://www.bom.gov.au/fwo/IDN60801/IDN60801.95740.json